sensor_id;sensor_type;location;lat;lon;timestamp;temperature;humidity
20528;DHT22;23612;50.894;10.700;2022-12-05T00:01:41;1.10;99.90
20528;DHT22;23612;50.894;10.700;2022-12-05T00:04:10;1.10;99.90
20528;DHT22;23612;50.894;10.700;2022-12-05T00:06:36;1.10;99.90
20528;DHT22;23612;50.894;10.700;2022-12-05T00:09:04;1.10;99.90
20528;DHT22;23612;50.894;10.700;2022-12-05T00:11:31;1.00;99.90
20528;DHT22;23612;50.894;10.700;2022-12-05T00:13:58;1.10;99.90
20528;DHT22;23612;50.894;10.700;2022-12-05T00:16:26;1.10;99.90
20528;DHT22;23612;50.894;10.700;2022-12-05T00:18:52;1.20;99.90
20528;DHT22;23612;50.894;10.700;2022-12-05T00:21:21;1.20;99.90
20528;DHT22;23612;50.894;10.700;2022-12-05T00:23:47;1.20;99.90
20528;DHT22;23612;50.894;10.700;2022-12-05T00:26:13;1.20;99.90
20528;DHT22;23612;50.894;10.700;2022-12-05T00:28:39;1.30;99.90
20528;DHT22;23612;50.894;10.700;2022-12-05T00:31:12;1.30;99.90
20528;DHT22;23612;50.894;10.700;2022-12-05T00:33:38;1.30;99.90
20528;DHT22;23612;50.894;10.700;2022-12-05T00:36:06;1.20;99.90
20528;DHT22;23612;50.894;10.700;2022-12-05T00:38:33;1.20;99.90
20528;DHT22;23612;50.894;10.700;2022-12-05T00:41:03;1.30;99.90
20528;DHT22;23612;50.894;10.700;2022-12-05T00:43:28;1.30;99.90
20528;DHT22;23612;50.894;10.700;2022-12-05T00:45:54;1.30;99.90
20528;DHT22;23612;50.894;10.700;2022-12-05T00:48:20;1.30;99.90
20528;DHT22;23612;50.894;10.700;2022-12-05T00:50:45;1.30;99.90
20528;DHT22;23612;50.894;10.700;2022-12-05T00:53:11;1.40;99.90
20528;DHT22;23612;50.894;10.700;2022-12-05T00:55:36;1.30;99.90
20528;DHT22;23612;50.894;10.700;2022-12-05T00:58:02;1.40;99.90
20528;DHT22;23612;50.894;10.700;2022-12-05T01:00:28;1.40;99.90
20528;DHT22;23612;50.894;10.700;2022-12-05T01:02:54;1.30;99.90
20528;DHT22;23612;50.894;10.700;2022-12-05T01:05:20;1.30;99.90
20528;DHT22;23612;50.894;10.700;2022-12-05T01:07:45;1.40;99.90
20528;DHT22;23612;50.894;10.700;2022-12-05T01:10:11;1.40;99.90
20528;DHT22;23612;50.894;10.700;2022-12-05T01:12:36;1.40;99.90
20528;DHT22;23612;50.894;10.700;2022-12-05T01:15:02;1.40;99.90
20528;DHT22;23612;50.894;10.700;2022-12-05T01:17:28;1.50;99.90
20528;DHT22;23612;50.894;10.700;2022-12-05T01:19:54;1.50;99.90
20528;DHT22;23612;50.894;10.700;2022-12-05T01:22:19;1.50;99.90
20528;DHT22;23612;50.894;10.700;2022-12-05T01:24:44;1.50;99.90
20528;DHT22;23612;50.894;10.700;2022-12-05T01:27:10;1.50;99.90
20528;DHT22;23612;50.894;10.700;2022-12-05T01:29:36;1.40;99.90
20528;DHT22;23612;50.894;10.700;2022-12-05T01:32:02;1.50;99.90
20528;DHT22;23612;50.894;10.700;2022-12-05T01:34:28;1.50;99.90
20528;DHT22;23612;50.894;10.700;2022-12-05T01:36:53;1.50;99.90
20528;DHT22;23612;50.894;10.700;2022-12-05T01:39:19;1.60;99.90
20528;DHT22;23612;50.894;10.700;2022-12-05T01:41:47;1.60;99.90
20528;DHT22;23612;50.894;10.700;2022-12-05T01:46:43;1.60;99.90
20528;DHT22;23612;50.894;10.700;2022-12-05T01:49:12;1.60;99.90
20528;DHT22;23612;50.894;10.700;2022-12-05T01:51:45;1.60;99.90
20528;DHT22;23612;50.894;10.700;2022-12-05T01:54:13;1.60;99.90
20528;DHT22;23612;50.894;10.700;2022-12-05T01:56:41;1.60;99.90
20528;DHT22;23612;50.894;10.700;2022-12-05T01:59:09;1.60;99.90
20528;DHT22;23612;50.894;10.700;2022-12-05T02:01:36;1.70;99.90
20528;DHT22;23612;50.894;10.700;2022-12-05T02:04:02;1.60;99.90
20528;DHT22;23612;50.894;10.700;2022-12-05T02:06:29;1.70;99.90
20528;DHT22;23612;50.894;10.700;2022-12-05T02:08:55;1.70;99.90
20528;DHT22;23612;50.894;10.700;2022-12-05T02:11:22;1.70;99.90
20528;DHT22;23612;50.894;10.700;2022-12-05T02:14:26;1.70;99.90
20528;DHT22;23612;50.894;10.700;2022-12-05T02:17:20;1.70;99.90
20528;DHT22;23612;50.894;10.700;2022-12-05T02:23:25;1.60;99.90
20528;DHT22;23612;50.894;10.700;2022-12-05T02:31:50;1.60;99.90
20528;DHT22;23612;50.894;10.700;2022-12-05T02:37:08;1.50;99.90
20528;DHT22;23612;50.894;10.700;2022-12-05T02:39:44;1.50;99.90
20528;DHT22;23612;50.894;10.700;2022-12-05T02:42:14;1.50;99.90
20528;DHT22;23612;50.894;10.700;2022-12-05T02:45:12;1.50;99.90
20528;DHT22;23612;50.894;10.700;2022-12-05T02:47:44;1.50;99.90
20528;DHT22;23612;50.894;10.700;2022-12-05T02:50:14;1.60;99.90
20528;DHT22;23612;50.894;10.700;2022-12-05T02:52:42;1.50;99.90
20528;DHT22;23612;50.894;10.700;2022-12-05T02:55:09;1.50;99.90
20528;DHT22;23612;50.894;10.700;2022-12-05T02:57:37;1.50;99.90
20528;DHT22;23612;50.894;10.700;2022-12-05T03:00:04;1.50;99.90
20528;DHT22;23612;50.894;10.700;2022-12-05T03:02:32;1.50;99.90
20528;DHT22;23612;50.894;10.700;2022-12-05T03:05:48;1.50;99.90
20528;DHT22;23612;50.894;10.700;2022-12-05T03:07:56;1.50;99.90
20528;DHT22;23612;50.894;10.700;2022-12-05T03:10:24;1.50;99.90
20528;DHT22;23612;50.894;10.700;2022-12-05T03:12:55;1.50;99.90
20528;DHT22;23612;50.894;10.700;2022-12-05T03:15:40;1.40;99.90
20528;DHT22;23612;50.894;10.700;2022-12-05T03:18:18;1.50;99.90
20528;DHT22;23612;50.894;10.700;2022-12-05T03:20:48;1.50;99.90
20528;DHT22;23612;50.894;10.700;2022-12-05T03:23:27;1.40;99.90
20528;DHT22;23612;50.894;10.700;2022-12-05T03:28:56;1.40;99.90
20528;DHT22;23612;50.894;10.700;2022-12-05T03:31:46;1.40;99.90
20528;DHT22;23612;50.894;10.700;2022-12-05T03:34:20;1.40;99.90
20528;DHT22;23612;50.894;10.700;2022-12-05T03:36:48;1.40;99.90
20528;DHT22;23612;50.894;10.700;2022-12-05T03:39:17;1.50;99.90
20528;DHT22;23612;50.894;10.700;2022-12-05T03:44:19;1.40;99.90
20528;DHT22;23612;50.894;10.700;2022-12-05T03:49:35;1.40;99.90
20528;DHT22;23612;50.894;10.700;2022-12-05T03:52:11;1.30;99.90
20528;DHT22;23612;50.894;10.700;2022-12-05T03:54:45;1.30;99.90
20528;DHT22;23612;50.894;10.700;2022-12-05T03:57:16;1.30;99.90
20528;DHT22;23612;50.894;10.700;2022-12-05T03:59:45;1.30;99.90
20528;DHT22;23612;50.894;10.700;2022-12-05T04:02:23;1.30;99.90
20528;DHT22;23612;50.894;10.700;2022-12-05T04:05:02;1.30;99.90
20528;DHT22;23612;50.894;10.700;2022-12-05T04:07:33;1.20;99.90
20528;DHT22;23612;50.894;10.700;2022-12-05T04:10:09;1.30;99.90
20528;DHT22;23612;50.894;10.700;2022-12-05T04:12:37;1.30;99.90
20528;DHT22;23612;50.894;10.700;2022-12-05T04:15:08;1.30;99.90
20528;DHT22;23612;50.894;10.700;2022-12-05T04:17:57;1.30;99.90
20528;DHT22;23612;50.894;10.700;2022-12-05T04:20:27;1.30;99.90
20528;DHT22;23612;50.894;10.700;2022-12-05T04:23:12;1.30;99.90
20528;DHT22;23612;50.894;10.700;2022-12-05T04:28:35;1.30;99.90
20528;DHT22;23612;50.894;10.700;2022-12-05T04:31:23;1.30;99.90
20528;DHT22;23612;50.894;10.700;2022-12-05T04:33:58;1.40;99.90
20528;DHT22;23612;50.894;10.700;2022-12-05T04:36:30;1.40;99.90
20528;DHT22;23612;50.894;10.700;2022-12-05T04:39:01;1.40;99.90
20528;DHT22;23612;50.894;10.700;2022-12-05T04:41:33;1.30;99.90
20528;DHT22;23612;50.894;10.700;2022-12-05T04:44:07;1.30;99.90
20528;DHT22;23612;50.894;10.700;2022-12-05T04:46:35;1.30;99.90
20528;DHT22;23612;50.894;10.700;2022-12-05T04:49:06;1.30;99.90
20528;DHT22;23612;50.894;10.700;2022-12-05T04:51:33;1.20;99.90
20528;DHT22;23612;50.894;10.700;2022-12-05T04:54:07;1.20;99.90
20528;DHT22;23612;50.894;10.700;2022-12-05T04:56:35;1.20;99.90
20528;DHT22;23612;50.894;10.700;2022-12-05T04:59:02;1.20;99.90
20528;DHT22;23612;50.894;10.700;2022-12-05T05:01:46;1.20;99.90
20528;DHT22;23612;50.894;10.700;2022-12-05T05:04:25;1.30;99.90
20528;DHT22;23612;50.894;10.700;2022-12-05T05:06:51;1.30;99.90
20528;DHT22;23612;50.894;10.700;2022-12-05T05:09:17;1.40;99.90
20528;DHT22;23612;50.894;10.700;2022-12-05T05:11:42;1.40;99.90
20528;DHT22;23612;50.894;10.700;2022-12-05T05:14:08;1.40;99.90
20528;DHT22;23612;50.894;10.700;2022-12-05T05:16:36;1.40;99.90
20528;DHT22;23612;50.894;10.700;2022-12-05T05:19:03;1.40;99.90
20528;DHT22;23612;50.894;10.700;2022-12-05T05:21:31;1.40;99.90
20528;DHT22;23612;50.894;10.700;2022-12-05T05:23:57;1.40;99.90
20528;DHT22;23612;50.894;10.700;2022-12-05T05:26:24;1.40;99.90
20528;DHT22;23612;50.894;10.700;2022-12-05T05:28:51;1.40;99.90
20528;DHT22;23612;50.894;10.700;2022-12-05T05:31:17;1.40;99.90
20528;DHT22;23612;50.894;10.700;2022-12-05T05:33:43;1.40;99.90
20528;DHT22;23612;50.894;10.700;2022-12-05T05:36:12;1.40;99.90
20528;DHT22;23612;50.894;10.700;2022-12-05T05:38:40;1.40;99.90
20528;DHT22;23612;50.894;10.700;2022-12-05T05:41:14;1.50;99.90
20528;DHT22;23612;50.894;10.700;2022-12-05T05:43:41;1.40;99.90
20528;DHT22;23612;50.894;10.700;2022-12-05T05:46:06;1.40;99.90
20528;DHT22;23612;50.894;10.700;2022-12-05T05:48:32;1.40;99.90
20528;DHT22;23612;50.894;10.700;2022-12-05T05:51:01;1.40;99.90
20528;DHT22;23612;50.894;10.700;2022-12-05T05:53:26;1.50;99.90
20528;DHT22;23612;50.894;10.700;2022-12-05T05:55:52;1.50;99.90
20528;DHT22;23612;50.894;10.700;2022-12-05T05:58:17;1.50;99.90
20528;DHT22;23612;50.894;10.700;2022-12-05T06:00:43;1.40;99.90
20528;DHT22;23612;50.894;10.700;2022-12-05T06:03:09;1.50;99.90
20528;DHT22;23612;50.894;10.700;2022-12-05T06:05:34;1.60;99.90
20528;DHT22;23612;50.894;10.700;2022-12-05T06:08:00;1.60;99.90
20528;DHT22;23612;50.894;10.700;2022-12-05T06:10:26;1.60;99.90
20528;DHT22;23612;50.894;10.700;2022-12-05T06:12:51;1.60;99.90
20528;DHT22;23612;50.894;10.700;2022-12-05T06:15:17;1.70;99.90
20528;DHT22;23612;50.894;10.700;2022-12-05T06:17:42;1.70;99.90
20528;DHT22;23612;50.894;10.700;2022-12-05T06:20:08;1.70;99.90
20528;DHT22;23612;50.894;10.700;2022-12-05T06:22:34;1.70;99.90
20528;DHT22;23612;50.894;10.700;2022-12-05T06:24:59;1.80;99.90
20528;DHT22;23612;50.894;10.700;2022-12-05T06:27:25;1.80;99.90
20528;DHT22;23612;50.894;10.700;2022-12-05T06:29:53;1.80;99.90
20528;DHT22;23612;50.894;10.700;2022-12-05T06:32:18;1.80;99.90
20528;DHT22;23612;50.894;10.700;2022-12-05T06:34:44;1.80;99.90
20528;DHT22;23612;50.894;10.700;2022-12-05T06:37:09;1.80;99.90
20528;DHT22;23612;50.894;10.700;2022-12-05T06:39:35;1.80;99.90
20528;DHT22;23612;50.894;10.700;2022-12-05T06:42:00;1.90;99.90
20528;DHT22;23612;50.894;10.700;2022-12-05T06:44:26;1.90;99.90
20528;DHT22;23612;50.894;10.700;2022-12-05T06:46:53;1.90;99.90
20528;DHT22;23612;50.894;10.700;2022-12-05T06:49:20;1.80;99.90
20528;DHT22;23612;50.894;10.700;2022-12-05T06:51:45;1.90;99.90
20528;DHT22;23612;50.894;10.700;2022-12-05T06:54:12;1.90;99.90
20528;DHT22;23612;50.894;10.700;2022-12-05T06:56:37;1.90;99.90
20528;DHT22;23612;50.894;10.700;2022-12-05T06:59:03;1.80;99.90
20528;DHT22;23612;50.894;10.700;2022-12-05T07:01:29;1.80;99.90
20528;DHT22;23612;50.894;10.700;2022-12-05T07:06:35;1.80;99.90
20528;DHT22;23612;50.894;10.700;2022-12-05T07:09:01;1.80;99.90
20528;DHT22;23612;50.894;10.700;2022-12-05T07:11:26;1.80;99.90
20528;DHT22;23612;50.894;10.700;2022-12-05T07:13:52;1.80;99.90
20528;DHT22;23612;50.894;10.700;2022-12-05T07:16:17;1.90;99.90
20528;DHT22;23612;50.894;10.700;2022-12-05T07:18:43;1.80;99.90
20528;DHT22;23612;50.894;10.700;2022-12-05T07:21:11;1.90;99.90
20528;DHT22;23612;50.894;10.700;2022-12-05T07:23:37;1.90;99.90
20528;DHT22;23612;50.894;10.700;2022-12-05T07:26:04;1.90;99.90
20528;DHT22;23612;50.894;10.700;2022-12-05T07:28:30;2.00;99.90
20528;DHT22;23612;50.894;10.700;2022-12-05T07:31:00;1.90;99.90
20528;DHT22;23612;50.894;10.700;2022-12-05T07:33:27;1.90;99.90
20528;DHT22;23612;50.894;10.700;2022-12-05T07:35:52;2.00;99.90
20528;DHT22;23612;50.894;10.700;2022-12-05T07:38:22;1.90;99.90
20528;DHT22;23612;50.894;10.700;2022-12-05T07:40:48;2.00;99.90
20528;DHT22;23612;50.894;10.700;2022-12-05T07:43:13;2.00;99.90
20528;DHT22;23612;50.894;10.700;2022-12-05T07:45:39;2.10;99.90
20528;DHT22;23612;50.894;10.700;2022-12-05T07:48:05;2.10;99.90
20528;DHT22;23612;50.894;10.700;2022-12-05T07:50:30;2.10;99.90
20528;DHT22;23612;50.894;10.700;2022-12-05T07:52:56;2.10;99.90
20528;DHT22;23612;50.894;10.700;2022-12-05T07:55:21;2.10;99.90
20528;DHT22;23612;50.894;10.700;2022-12-05T07:57:47;2.10;99.90
20528;DHT22;23612;50.894;10.700;2022-12-05T08:00:13;2.10;99.90
20528;DHT22;23612;50.894;10.700;2022-12-05T08:02:38;2.10;99.90
20528;DHT22;23612;50.894;10.700;2022-12-05T08:05:04;2.30;99.90
20528;DHT22;23612;50.894;10.700;2022-12-05T08:07:30;2.20;99.90
20528;DHT22;23612;50.894;10.700;2022-12-05T08:09:55;2.30;99.90
20528;DHT22;23612;50.894;10.700;2022-12-05T08:12:21;2.40;99.90
20528;DHT22;23612;50.894;10.700;2022-12-05T08:14:46;2.40;99.90
20528;DHT22;23612;50.894;10.700;2022-12-05T08:17:12;2.30;99.90
20528;DHT22;23612;50.894;10.700;2022-12-05T08:19:37;2.20;99.90
20528;DHT22;23612;50.894;10.700;2022-12-05T08:22:03;2.30;99.90
20528;DHT22;23612;50.894;10.700;2022-12-05T08:24:29;2.30;99.90
20528;DHT22;23612;50.894;10.700;2022-12-05T08:26:54;2.30;99.90
20528;DHT22;23612;50.894;10.700;2022-12-05T08:29:20;2.30;99.90
20528;DHT22;23612;50.894;10.700;2022-12-05T08:31:49;2.30;99.90
20528;DHT22;23612;50.894;10.700;2022-12-05T08:34:17;2.30;99.90
20528;DHT22;23612;50.894;10.700;2022-12-05T08:36:43;2.40;99.90
20528;DHT22;23612;50.894;10.700;2022-12-05T08:39:12;2.50;99.90
20528;DHT22;23612;50.894;10.700;2022-12-05T08:41:40;2.60;99.90
20528;DHT22;23612;50.894;10.700;2022-12-05T08:44:07;2.60;99.90
20528;DHT22;23612;50.894;10.700;2022-12-05T08:46:36;2.50;99.90
20528;DHT22;23612;50.894;10.700;2022-12-05T08:49:04;2.40;99.90
20528;DHT22;23612;50.894;10.700;2022-12-05T08:51:30;2.40;99.90
20528;DHT22;23612;50.894;10.700;2022-12-05T08:53:56;2.50;99.90
20528;DHT22;23612;50.894;10.700;2022-12-05T08:56:22;2.60;99.90
20528;DHT22;23612;50.894;10.700;2022-12-05T08:58:47;2.70;99.90
20528;DHT22;23612;50.894;10.700;2022-12-05T09:01:16;2.70;99.90
20528;DHT22;23612;50.894;10.700;2022-12-05T09:03:42;2.70;99.90
20528;DHT22;23612;50.894;10.700;2022-12-05T09:06:20;2.80;99.90
20528;DHT22;23612;50.894;10.700;2022-12-05T09:08:46;2.70;99.90
20528;DHT22;23612;50.894;10.700;2022-12-05T09:11:15;2.80;99.90
20528;DHT22;23612;50.894;10.700;2022-12-05T09:13:41;2.70;99.90
20528;DHT22;23612;50.894;10.700;2022-12-05T09:16:08;2.60;99.90
20528;DHT22;23612;50.894;10.700;2022-12-05T09:18:34;2.60;99.90
20528;DHT22;23612;50.894;10.700;2022-12-05T09:21:11;2.60;99.90
20528;DHT22;23612;50.894;10.700;2022-12-05T09:23:37;2.60;99.90
20528;DHT22;23612;50.894;10.700;2022-12-05T09:26:04;2.60;99.90
20528;DHT22;23612;50.894;10.700;2022-12-05T09:28:31;2.60;99.90
20528;DHT22;23612;50.894;10.700;2022-12-05T09:31:00;2.60;99.90
20528;DHT22;23612;50.894;10.700;2022-12-05T09:33:30;2.60;99.90
20528;DHT22;23612;50.894;10.700;2022-12-05T09:35:57;2.60;99.90
20528;DHT22;23612;50.894;10.700;2022-12-05T09:38:23;2.80;99.90
20528;DHT22;23612;50.894;10.700;2022-12-05T09:43:49;3.00;99.90
20528;DHT22;23612;50.894;10.700;2022-12-05T09:46:29;2.90;99.90
20528;DHT22;23612;50.894;10.700;2022-12-05T09:49:02;2.80;99.90
20528;DHT22;23612;50.894;10.700;2022-12-05T09:51:30;2.80;99.90
20528;DHT22;23612;50.894;10.700;2022-12-05T09:53:56;2.80;99.90
20528;DHT22;23612;50.894;10.700;2022-12-05T09:56:27;2.70;99.90
20528;DHT22;23612;50.894;10.700;2022-12-05T09:58:55;2.70;99.90
20528;DHT22;23612;50.894;10.700;2022-12-05T10:01:51;2.70;99.90
20528;DHT22;23612;50.894;10.700;2022-12-05T10:07:20;2.70;99.90
20528;DHT22;23612;50.894;10.700;2022-12-05T10:12:57;2.70;99.90
20528;DHT22;23612;50.894;10.700;2022-12-05T10:15:54;2.60;99.90
20528;DHT22;23612;50.894;10.700;2022-12-05T10:20:50;2.60;99.90
20528;DHT22;23612;50.894;10.700;2022-12-05T10:25:56;2.70;99.90
20528;DHT22;23612;50.894;10.700;2022-12-05T10:28:48;2.80;99.90
20528;DHT22;23612;50.894;10.700;2022-12-05T10:31:17;2.80;99.90
20528;DHT22;23612;50.894;10.700;2022-12-05T10:33:47;2.80;99.90
20528;DHT22;23612;50.894;10.700;2022-12-05T10:36:14;3.00;99.90
20528;DHT22;23612;50.894;10.700;2022-12-05T10:38:43;3.00;99.90
20528;DHT22;23612;50.894;10.700;2022-12-05T10:41:12;3.10;99.90
20528;DHT22;23612;50.894;10.700;2022-12-05T10:43:43;3.10;99.90
20528;DHT22;23612;50.894;10.700;2022-12-05T10:46:10;3.20;99.90
20528;DHT22;23612;50.894;10.700;2022-12-05T10:48:39;3.20;99.90
20528;DHT22;23612;50.894;10.700;2022-12-05T10:51:06;3.30;99.90
20528;DHT22;23612;50.894;10.700;2022-12-05T10:53:44;3.20;99.90
20528;DHT22;23612;50.894;10.700;2022-12-05T10:59:00;3.30;99.90
20528;DHT22;23612;50.894;10.700;2022-12-05T11:01:27;3.30;99.90
20528;DHT22;23612;50.894;10.700;2022-12-05T11:04:01;3.40;99.90
20528;DHT22;23612;50.894;10.700;2022-12-05T11:06:30;3.50;99.90
20528;DHT22;23612;50.894;10.700;2022-12-05T11:09:02;3.70;99.90
20528;DHT22;23612;50.894;10.700;2022-12-05T11:11:29;3.80;99.90
20528;DHT22;23612;50.894;10.700;2022-12-05T11:14:21;3.90;99.90
20528;DHT22;23612;50.894;10.700;2022-12-05T11:16:53;3.90;99.90
20528;DHT22;23612;50.894;10.700;2022-12-05T11:19:38;3.90;99.90
20528;DHT22;23612;50.894;10.700;2022-12-05T11:22:04;3.80;99.90
20528;DHT22;23612;50.894;10.700;2022-12-05T11:24:36;3.80;99.90
20528;DHT22;23612;50.894;10.700;2022-12-05T11:27:40;3.80;99.90
20528;DHT22;23612;50.894;10.700;2022-12-05T11:30:18;3.80;99.90
20528;DHT22;23612;50.894;10.700;2022-12-05T11:32:44;3.80;99.90
20528;DHT22;23612;50.894;10.700;2022-12-05T11:35:17;3.80;99.90
20528;DHT22;23612;50.894;10.700;2022-12-05T11:45:47;3.80;99.90
20528;DHT22;23612;50.894;10.700;2022-12-05T11:48:28;3.80;99.90
20528;DHT22;23612;50.894;10.700;2022-12-05T11:56:40;3.50;99.90
20528;DHT22;23612;50.894;10.700;2022-12-05T12:02:19;3.60;99.90
20528;DHT22;23612;50.894;10.700;2022-12-05T12:07:54;3.60;99.90
20528;DHT22;23612;50.894;10.700;2022-12-05T12:19:38;3.50;99.90
20528;DHT22;23612;50.894;10.700;2022-12-05T12:25:10;3.40;99.90
20528;DHT22;23612;50.894;10.700;2022-12-05T12:27:54;3.40;99.90
20528;DHT22;23612;50.894;10.700;2022-12-05T12:33:29;3.30;99.90
20528;DHT22;23612;50.894;10.700;2022-12-05T12:36:12;3.40;99.90
20528;DHT22;23612;50.894;10.700;2022-12-05T12:39:07;3.30;99.90
20528;DHT22;23612;50.894;10.700;2022-12-05T12:45:05;3.40;99.90
20528;DHT22;23612;50.894;10.700;2022-12-05T12:47:52;3.40;99.90
20528;DHT22;23612;50.894;10.700;2022-12-05T12:50:27;3.40;99.90
20528;DHT22;23612;50.894;10.700;2022-12-05T12:58:45;3.40;99.90
20528;DHT22;23612;50.894;10.700;2022-12-05T13:01:31;3.40;99.90
20528;DHT22;23612;50.894;10.700;2022-12-05T13:04:14;3.40;99.90
20528;DHT22;23612;50.894;10.700;2022-12-05T13:09:30;3.40;99.90
20528;DHT22;23612;50.894;10.700;2022-12-05T13:12:04;3.40;99.90
20528;DHT22;23612;50.894;10.700;2022-12-05T13:14:33;3.40;99.90
20528;DHT22;23612;50.894;10.700;2022-12-05T13:17:00;3.40;99.90
20528;DHT22;23612;50.894;10.700;2022-12-05T13:19:42;3.60;99.90
20528;DHT22;23612;50.894;10.700;2022-12-05T13:22:10;3.60;99.90
20528;DHT22;23612;50.894;10.700;2022-12-05T13:24:37;3.70;99.90
20528;DHT22;23612;50.894;10.700;2022-12-05T13:27:07;3.70;99.90
20528;DHT22;23612;50.894;10.700;2022-12-05T13:29:36;3.50;99.90
20528;DHT22;23612;50.894;10.700;2022-12-05T13:32:04;3.60;99.90
20528;DHT22;23612;50.894;10.700;2022-12-05T13:34:41;3.50;99.90
20528;DHT22;23612;50.894;10.700;2022-12-05T13:37:21;3.60;99.90
20528;DHT22;23612;50.894;10.700;2022-12-05T13:43:08;3.40;99.90
20528;DHT22;23612;50.894;10.700;2022-12-05T13:45:35;3.50;99.90
20528;DHT22;23612;50.894;10.700;2022-12-05T13:48:21;3.40;99.90
20528;DHT22;23612;50.894;10.700;2022-12-05T13:50:56;3.30;99.90
20528;DHT22;23612;50.894;10.700;2022-12-05T13:53:28;3.30;99.90
20528;DHT22;23612;50.894;10.700;2022-12-05T14:00:49;3.10;99.90
20528;DHT22;23612;50.894;10.700;2022-12-05T14:09:03;2.90;99.90
20528;DHT22;23612;50.894;10.700;2022-12-05T14:11:29;2.90;99.90
20528;DHT22;23612;50.894;10.700;2022-12-05T14:13:55;2.90;99.90
20528;DHT22;23612;50.894;10.700;2022-12-05T14:22:18;2.90;99.90
20528;DHT22;23612;50.894;10.700;2022-12-05T14:25:05;2.80;99.90
20528;DHT22;23612;50.894;10.700;2022-12-05T14:30:33;2.80;99.90
20528;DHT22;23612;50.894;10.700;2022-12-05T14:33:00;2.70;99.90
20528;DHT22;23612;50.894;10.700;2022-12-05T14:35:30;2.70;99.90
20528;DHT22;23612;50.894;10.700;2022-12-05T14:37:58;2.80;99.90
20528;DHT22;23612;50.894;10.700;2022-12-05T14:40:32;2.70;99.90
20528;DHT22;23612;50.894;10.700;2022-12-05T14:50:47;2.70;99.90
20528;DHT22;23612;50.894;10.700;2022-12-05T15:01:58;2.80;99.90
20528;DHT22;23612;50.894;10.700;2022-12-05T15:09:36;2.70;99.90
20528;DHT22;23612;50.894;10.700;2022-12-05T15:12:10;2.70;99.90
20528;DHT22;23612;50.894;10.700;2022-12-05T15:17:34;2.70;99.90
20528;DHT22;23612;50.894;10.700;2022-12-05T15:20:15;2.70;99.90
20528;DHT22;23612;50.894;10.700;2022-12-05T15:22:42;2.70;99.90
20528;DHT22;23612;50.894;10.700;2022-12-05T15:25:22;2.70;99.90
20528;DHT22;23612;50.894;10.700;2022-12-05T15:27:53;2.70;99.90
20528;DHT22;23612;50.894;10.700;2022-12-05T15:30:19;2.80;99.90
20528;DHT22;23612;50.894;10.700;2022-12-05T15:32:45;2.90;99.90
20528;DHT22;23612;50.894;10.700;2022-12-05T15:35:11;2.80;99.90
20528;DHT22;23612;50.894;10.700;2022-12-05T15:40:24;2.80;99.90
20528;DHT22;23612;50.894;10.700;2022-12-05T15:42:55;2.80;99.90
20528;DHT22;23612;50.894;10.700;2022-12-05T15:45:24;2.70;99.90
20528;DHT22;23612;50.894;10.700;2022-12-05T15:47:55;2.90;99.90
20528;DHT22;23612;50.894;10.700;2022-12-05T15:50:34;2.90;99.90
20528;DHT22;23612;50.894;10.700;2022-12-05T15:56:04;2.80;99.90
20528;DHT22;23612;50.894;10.700;2022-12-05T15:58:38;2.80;99.90
20528;DHT22;23612;50.894;10.700;2022-12-05T16:01:21;2.70;99.90
20528;DHT22;23612;50.894;10.700;2022-12-05T16:04:06;2.60;99.90
20528;DHT22;23612;50.894;10.700;2022-12-05T16:06:49;2.60;99.90
20528;DHT22;23612;50.894;10.700;2022-12-05T16:09:27;2.60;99.90
20528;DHT22;23612;50.894;10.700;2022-12-05T16:11:58;2.50;99.90
20528;DHT22;23612;50.894;10.700;2022-12-05T16:14:29;2.50;99.90
20528;DHT22;23612;50.894;10.700;2022-12-05T16:16:57;2.50;99.90
20528;DHT22;23612;50.894;10.700;2022-12-05T16:19:25;2.50;99.90
20528;DHT22;23612;50.894;10.700;2022-12-05T16:22:23;2.50;99.90
20528;DHT22;23612;50.894;10.700;2022-12-05T16:24:54;2.60;99.90
20528;DHT22;23612;50.894;10.700;2022-12-05T16:27:26;2.50;99.90
20528;DHT22;23612;50.894;10.700;2022-12-05T16:32:38;2.70;99.90
20528;DHT22;23612;50.894;10.700;2022-12-05T16:48:38;2.80;99.90
20528;DHT22;23612;50.894;10.700;2022-12-05T16:51:24;2.80;99.90
20528;DHT22;23612;50.894;10.700;2022-12-05T16:53:52;2.80;99.90
20528;DHT22;23612;50.894;10.700;2022-12-05T16:56:25;2.80;99.90
20528;DHT22;23612;50.894;10.700;2022-12-05T16:58:52;2.70;99.90
20528;DHT22;23612;50.894;10.700;2022-12-05T17:01:23;2.90;99.90
20528;DHT22;23612;50.894;10.700;2022-12-05T17:03:50;3.00;99.90
20528;DHT22;23612;50.894;10.700;2022-12-05T17:06:17;3.10;99.90
20528;DHT22;23612;50.894;10.700;2022-12-05T17:08:43;3.10;99.90
20528;DHT22;23612;50.894;10.700;2022-12-05T17:11:15;3.00;99.90
20528;DHT22;23612;50.894;10.700;2022-12-05T17:13:42;3.00;99.90
20528;DHT22;23612;50.894;10.700;2022-12-05T17:16:09;2.90;99.90
20528;DHT22;23612;50.894;10.700;2022-12-05T17:18:35;2.90;99.90
20528;DHT22;23612;50.894;10.700;2022-12-05T17:21:00;2.80;99.90
20528;DHT22;23612;50.894;10.700;2022-12-05T17:23:26;2.80;99.90
20528;DHT22;23612;50.894;10.700;2022-12-05T17:25:54;2.90;99.90
20528;DHT22;23612;50.894;10.700;2022-12-05T17:28:20;2.80;99.90
20528;DHT22;23612;50.894;10.700;2022-12-05T17:30:46;2.80;99.90
20528;DHT22;23612;50.894;10.700;2022-12-05T17:33:14;2.80;99.90
20528;DHT22;23612;50.894;10.700;2022-12-05T17:35:40;2.80;99.90
20528;DHT22;23612;50.894;10.700;2022-12-05T17:38:06;2.80;99.90
20528;DHT22;23612;50.894;10.700;2022-12-05T17:40:32;2.80;99.90
20528;DHT22;23612;50.894;10.700;2022-12-05T17:42:58;2.80;99.90
20528;DHT22;23612;50.894;10.700;2022-12-05T17:45:24;2.90;99.90
20528;DHT22;23612;50.894;10.700;2022-12-05T17:47:50;2.70;99.90
20528;DHT22;23612;50.894;10.700;2022-12-05T17:50:18;2.70;99.90
20528;DHT22;23612;50.894;10.700;2022-12-05T17:52:44;2.70;99.90
20528;DHT22;23612;50.894;10.700;2022-12-05T17:55:22;2.70;99.90
20528;DHT22;23612;50.894;10.700;2022-12-05T17:57:48;2.60;99.90
20528;DHT22;23612;50.894;10.700;2022-12-05T18:00:16;2.60;99.90
20528;DHT22;23612;50.894;10.700;2022-12-05T18:02:42;2.50;99.90
20528;DHT22;23612;50.894;10.700;2022-12-05T18:05:09;2.60;99.90
20528;DHT22;23612;50.894;10.700;2022-12-05T18:07:36;2.60;99.90
20528;DHT22;23612;50.894;10.700;2022-12-05T18:10:02;2.60;99.90
20528;DHT22;23612;50.894;10.700;2022-12-05T18:12:28;2.70;99.90
20528;DHT22;23612;50.894;10.700;2022-12-05T18:14:53;2.90;99.90
20528;DHT22;23612;50.894;10.700;2022-12-05T18:17:19;2.90;99.90
20528;DHT22;23612;50.894;10.700;2022-12-05T18:19:44;2.90;99.90
20528;DHT22;23612;50.894;10.700;2022-12-05T18:22:10;2.90;99.90
20528;DHT22;23612;50.894;10.700;2022-12-05T18:24:35;3.00;99.90
20528;DHT22;23612;50.894;10.700;2022-12-05T18:27:01;3.00;99.90
20528;DHT22;23612;50.894;10.700;2022-12-05T18:29:26;3.00;99.90